MV Sally Archer — WDB7650 — position and weather

sailwx.info

Track history (hours):
 
Tides and Currents Weather Stations Pressure Air Temp Water Temp Dewpoint Dewpoint Depression Visibility Wind Speed Wind Dir Waves Ship Positions

MV Sally Archer

Owner: American River Transportation Co., Saint Louis, MO. More information available from US FCC via Universal Licensing System and Coast Guard Vessel Documentation Center.

Last reported at 2018-Feb-18 19:09 UTC. Time now 2018-Feb-26 03:07 UTC.
Position N 31°59' W 091°09'.

Length 60 m; draft 3.5 m.

Type: Towing. MMSI: 366945650.

Date/timePositionNaut miles runAvg speedWind from/ knotsBaromVisibWave heightAir tempDewpointWater temp
2018-Feb-18 19:09N 31°59' W 091°09'2 8.2
2018-Feb-18 18:51N 31°59' W 091°06'7 6.9
2018-Feb-18 17:52N 32°06' W 091°06'2 4.2
2018-Feb-18 17:30N 32°08' W 091°06'4 7.5
2018-Feb-18 17:00N 32°07' W 091°02'4 7.8
2018-Feb-18 16:27N 32°11' W 090°60'4 8.6
2018-Feb-18 16:00N 32°15' W 090°59'4 7.9
2018-Feb-18 15:30N 32°18' W 090°55'3 6.0
2018-Feb-18 15:00N 32°21' W 090°56'4 8.1
2018-Feb-18 14:30N 32°22' W 091°00'4 7.3
2018-Feb-18 14:00N 32°25' W 091°01'4 8.2
2018-Feb-18 13:30N 32°27' W 091°05'4 7.9
2018-Feb-18 12:57N 32°31' W 091°06'3 7.8
2018-Feb-18 12:30N 32°35' W 091°07'5 7.1
2018-Feb-18 11:45N 32°40' W 091°08'  
2018-Feb-08 20:30N 32°37' W 091°09'  
Track history (hours):
 
Tides and Currents Weather Stations Pressure Air Temp Water Temp Dewpoint Dewpoint Depression Visibility Wind Speed Wind Dir Waves Ship Positions

MV Sally Archer

Owner: American River Transportation Co., Saint Louis, MO. More information available from US FCC via Universal Licensing System and Coast Guard Vessel Documentation Center.

Last reported at 2018-Feb-18 19:09 UTC. Time now 2018-Feb-26 03:07 UTC.
Position N 31°59' W 091°09'.

Length 60 m; draft 3.5 m.

Type: Towing. MMSI: 366945650.

Date/timePositionNaut miles runAvg speedWind from/ knotsBaromVisibWave heightAir tempDewpointWater temp
2018-Feb-18 19:09N 31°59' W 091°09'2 8.2
2018-Feb-18 18:51N 31°59' W 091°06'7 6.9
2018-Feb-18 17:52N 32°06' W 091°06'2 4.2
2018-Feb-18 17:30N 32°08' W 091°06'4 7.5
2018-Feb-18 17:00N 32°07' W 091°02'4 7.8
2018-Feb-18 16:27N 32°11' W 090°60'4 8.6
2018-Feb-18 16:00N 32°15' W 090°59'4 7.9
2018-Feb-18 15:30N 32°18' W 090°55'3 6.0
2018-Feb-18 15:00N 32°21' W 090°56'4 8.1
2018-Feb-18 14:30N 32°22' W 091°00'4 7.3
2018-Feb-18 14:00N 32°25' W 091°01'4 8.2
2018-Feb-18 13:30N 32°27' W 091°05'4 7.9
2018-Feb-18 12:57N 32°31' W 091°06'3 7.8
2018-Feb-18 12:30N 32°35' W 091°07'5 7.1
2018-Feb-18 11:45N 32°40' W 091°08'  
2018-Feb-08 20:30N 32°37' W 091°09'  

Dump ship's entire track history